Time,TemperatureF,DewpointF,PressureIn,WindDirection,WindDirectionDegrees,WindSpeedMPH,WindSpeedGustMPH,Humidity,HourlyPrecipIn,Conditions,Clouds,dailyrainin,SoftwareType,DateUTC
2013-06-01 00:02:00,60.4,48.0,29.93,SW,221,0.0,-999.0,65,-99.99,,,0.00,weatherlink.com 1.10,2013-06-01 07:02:00,
2013-06-01 00:18:00,59.9,48.0,29.92,SW,221,0.0,-999.0,66,-99.99,,,0.00,weatherlink.com 1.10,2013-06-01 07:18:00,
2013-06-01 00:33:00,59.5,48.0,29.92,SW,221,0.0,-999.0,66,-99.99,,,0.00,weatherlink.com 1.10,2013-06-01 07:33:00,
2013-06-01 00:48:00,59.3,48.0,29.92,SW,221,0.0,-999.0,66,-99.99,,,0.00,weatherlink.com 1.10,2013-06-01 07:48:00,
2013-06-01 01:03:00,59.5,48.0,29.92,SW,219,0.0,-999.0,66,-99.99,,,0.00,weatherlink.com 1.10,2013-06-01 08:03:00,
2013-06-01 01:18:00,58.6,47.0,29.92,SSW,211,0.0,-999.0,66,-99.99,,,0.00,weatherlink.com 1.10,2013-06-01 08:18:00,
2013-06-01 01:33:00,58.3,47.0,29.92,SSW,212,0.0,-999.0,67,-99.99,,,0.00,weatherlink.com 1.10,2013-06-01 08:33:00,
2013-06-01 01:48:00,58.0,48.0,29.92,SSW,212,0.0,-999.0,69,-99.99,,,0.00,weatherlink.com 1.10,2013-06-01 08:48:00,
2013-06-01 02:03:00,57.8,48.0,29.92,SSW,212,0.0,-999.0,69,-99.99,,,0.00,weatherlink.com 1.10,2013-06-01 09:03:00,
2013-06-01 02:18:00,57.5,47.0,29.91,SSW,212,0.0,-999.0,69,-99.99,,,0.00,weatherlink.com 1.10,2013-06-01 09:18:00,
2013-06-01 02:32:00,57.1,47.0,29.91,SSW,212,0.0,-999.0,70,-99.99,,,0.00,weatherlink.com 1.10,2013-06-01 09:32:00,
2013-06-01 02:48:00,57.1,46.0,29.90,SSW,212,0.0,-999.0,67,-99.99,,,0.00,weatherlink.com 1.10,2013-06-01 09:48:00,
2013-06-01 03:03:00,56.9,47.0,29.90,SSW,212,0.0,-999.0,70,-99.99,,,0.00,weatherlink.com 1.10,2013-06-01 10:03:00,
2013-06-01 03:18:00,56.5,48.0,29.90,SSW,213,0.0,-999.0,72,-99.99,,,0.00,weatherlink.com 1.10,2013-06-01 10:18:00,
2013-06-01 03:33:00,56.1,47.0,29.89,SSW,213,0.0,-999.0,71,-99.99,,,0.00,weatherlink.com 1.10,2013-06-01 10:33:00,
2013-06-01 03:48:00,55.8,47.0,29.89,SSW,213,0.0,-999.0,72,-99.99,,,0.00,weatherlink.com 1.10,2013-06-01 10:48:00,
2013-06-01 04:03:00,56.3,46.0,29.89,SSW,213,0.0,-999.0,69,-99.99,,,0.00,weatherlink.com 1.10,2013-06-01 11:03:00,
2013-06-01 04:18:00,56.8,46.0,29.89,SSW,213,0.0,-999.0,68,-99.99,,,0.00,weatherlink.com 1.10,2013-06-01 11:18:00,
2013-06-01 04:33:00,56.6,46.0,29.89,SSW,213,0.0,-999.0,69,-99.99,,,0.00,weatherlink.com 1.10,2013-06-01 11:33:00,
2013-06-01 04:48:00,56.3,47.0,29.88,SSW,213,0.0,-999.0,71,-99.99,,,0.00,weatherlink.com 1.10,2013-06-01 11:48:00,
2013-06-01 05:03:00,56.4,47.0,29.88,WSW,248,2.0,-999.0,71,-99.99,,,0.00,weatherlink.com 1.10,2013-06-01 12:03:00,
2013-06-01 05:18:00,56.2,47.0,29.89,WSW,248,0.0,-999.0,70,-99.99,,,0.00,weatherlink.com 1.10,2013-06-01 12:18:00,
2013-06-01 05:33:00,55.8,47.0,29.89,WSW,248,0.0,-999.0,71,-99.99,,,0.00,weatherlink.com 1.10,2013-06-01 12:33:00,
2013-06-01 05:48:00,56.5,46.0,29.89,WSW,248,0.0,-999.0,69,-99.99,,,0.00,weatherlink.com 1.10,2013-06-01 12:48:00,
2013-06-01 06:03:00,58.0,47.0,29.88,WSW,248,0.0,-999.0,66,-99.99,,,0.00,weatherlink.com 1.10,2013-06-01 13:03:00,
2013-06-01 06:18:00,59.0,48.0,29.88,WSW,248,0.0,-999.0,66,-99.99,,,0.00,weatherlink.com 1.10,2013-06-01 13:18:00,
2013-06-01 06:32:00,59.5,47.0,29.88,WSW,248,0.0,-999.0,63,-99.99,,,0.00,weatherlink.com 1.10,2013-06-01 13:32:00,
2013-06-01 06:48:00,59.0,47.0,29.89,WSW,248,0.0,-999.0,64,-99.99,,,0.00,weatherlink.com 1.10,2013-06-01 13:48:00,
2013-06-01 07:03:00,59.0,47.0,29.89,WSW,247,0.0,-999.0,65,-99.99,,,0.00,weatherlink.com 1.10,2013-06-01 14:03:00,
2013-06-01 07:18:00,59.0,48.0,29.89,WSW,247,0.0,-999.0,66,-99.99,,,0.00,weatherlink.com 1.10,2013-06-01 14:18:00,
2013-06-01 07:33:00,60.5,49.0,29.89,WSW,246,0.0,-999.0,65,-99.99,,,0.00,weatherlink.com 1.10,2013-06-01 14:33:00,
2013-06-01 07:48:00,62.2,49.0,29.90,WSW,246,0.0,-999.0,63,-99.99,,,0.00,weatherlink.com 1.10,2013-06-01 14:48:00,
2013-06-01 08:03:00,63.1,50.0,29.89,WSW,256,0.0,-999.0,62,-99.99,,,0.00,weatherlink.com 1.10,2013-06-01 15:03:00,
2013-06-01 08:18:00,64.4,50.0,29.90,SSE,161,0.0,-999.0,61,-99.99,,,0.00,weatherlink.com 1.10,2013-06-01 15:18:00,
2013-06-01 08:33:00,64.8,50.0,29.90,ESE,113,1.0,-999.0,59,-99.99,,,0.00,weatherlink.com 1.10,2013-06-01 15:33:00,
2013-06-01 08:48:00,66.8,51.0,29.90,ESE,107,1.0,-999.0,57,-99.99,,,0.00,weatherlink.com 1.10,2013-06-01 15:48:00,
2013-06-01 09:03:00,67.9,51.0,29.90,ESE,102,2.0,-999.0,55,-99.99,,,0.00,weatherlink.com 1.10,2013-06-01 16:03:00,
2013-06-01 09:18:00,68.0,52.0,29.90,East,94,0.0,-999.0,56,-99.99,,,0.00,weatherlink.com 1.10,2013-06-01 16:18:00,
2013-06-01 09:33:00,69.7,53.0,29.89,East,96,2.0,-999.0,55,-99.99,,,0.00,weatherlink.com 1.10,2013-06-01 16:33:00,
2013-06-01 09:48:00,71.0,53.0,29.89,East,88,3.0,-999.0,53,-99.99,,,0.00,weatherlink.com 1.10,2013-06-01 16:48:00,
2013-06-01 10:03:00,72.0,54.0,29.89,East,86,2.0,-999.0,53,-99.99,,,0.00,weatherlink.com 1.10,2013-06-01 17:03:00,
2013-06-01 10:18:00,72.7,53.0,29.88,East,90,1.0,-999.0,51,-99.99,,,0.00,weatherlink.com 1.10,2013-06-01 17:18:00,
2013-06-01 10:32:00,73.9,55.0,29.88,East,88,0.0,-999.0,51,-99.99,,,0.00,weatherlink.com 1.10,2013-06-01 17:32:00,
2013-06-01 10:48:00,75.7,55.0,29.88,ESE,104,0.0,-999.0,49,-99.99,,,0.00,weatherlink.com 1.10,2013-06-01 17:48:00,
2013-06-01 11:03:00,75.3,55.0,29.88,East,94,1.0,-999.0,49,-99.99,,,0.00,weatherlink.com 1.10,2013-06-01 18:03:00,
2013-06-01 11:18:00,75.6,54.0,29.88,East,88,0.0,-999.0,48,-99.99,,,0.00,weatherlink.com 1.10,2013-06-01 18:18:00,
2013-06-01 11:33:00,76.6,54.0,29.88,NE,53,0.0,-999.0,46,-99.99,,,0.00,weatherlink.com 1.10,2013-06-01 18:33:00,
2013-06-01 11:48:00,78.0,55.0,29.88,East,99,3.0,-999.0,45,-99.99,,,0.00,weatherlink.com 1.10,2013-06-01 18:48:00,
2013-06-01 12:03:00,80.0,55.0,29.87,ENE,67,3.0,-999.0,42,-99.99,,,0.00,weatherlink.com 1.10,2013-06-01 19:03:00,
2013-06-01 12:18:00,82.0,55.0,29.87,ESE,104,0.0,-999.0,39,-99.99,,,0.00,weatherlink.com 1.10,2013-06-01 19:18:00,
2013-06-01 12:33:00,82.3,55.0,29.86,East,86,3.0,-999.0,39,-99.99,,,0.00,weatherlink.com 1.10,2013-06-01 19:33:00,
2013-06-01 12:48:00,82.6,54.0,29.86,East,91,3.0,-999.0,38,-99.99,,,0.00,weatherlink.com 1.10,2013-06-01 19:48:00,
2013-06-01 13:03:00,83.6,55.0,29.85,ENE,71,4.0,-999.0,37,-99.99,,,0.00,weatherlink.com 1.10,2013-06-01 20:03:00,
2013-06-01 13:18:00,83.1,55.0,29.85,East,80,2.0,-999.0,38,-99.99,,,0.00,weatherlink.com 1.10,2013-06-01 20:18:00,
2013-06-01 13:33:00,83.6,55.0,29.84,East,86,4.0,-999.0,38,-99.99,,,0.00,weatherlink.com 1.10,2013-06-01 20:33:00,
2013-06-01 13:48:00,84.9,55.0,29.84,NE,54,5.0,-999.0,36,-99.99,,,0.00,weatherlink.com 1.10,2013-06-01 20:48:00,
2013-06-01 14:03:00,86.3,55.0,29.83,East,96,2.0,-999.0,34,-99.99,,,0.00,weatherlink.com 1.10,2013-06-01 21:03:00,
2013-06-01 14:18:00,87.4,55.0,29.83,East,92,5.0,-999.0,33,-99.99,,,0.00,weatherlink.com 1.10,2013-06-01 21:18:00,
2013-06-01 14:32:00,85.7,54.0,29.83,East,84,0.0,-999.0,34,-99.99,,,0.00,weatherlink.com 1.10,2013-06-01 21:32:00,
2013-06-01 14:48:00,88.3,57.0,29.83,South,187,3.0,-999.0,34,-99.99,,,0.00,weatherlink.com 1.10,2013-06-01 21:48:00,
2013-06-01 15:03:00,91.0,57.0,29.82,SW,214,2.0,-999.0,32,-99.99,,,0.00,weatherlink.com 1.10,2013-06-01 22:03:00,
2013-06-01 15:18:00,91.6,57.0,29.81,SW,217,1.0,-999.0,31,-99.99,,,0.00,weatherlink.com 1.10,2013-06-01 22:18:00,
2013-06-01 15:33:00,90.2,56.0,29.80,South,169,0.0,-999.0,31,-99.99,,,0.00,weatherlink.com 1.10,2013-06-01 22:33:00,
2013-06-01 15:48:00,90.6,56.0,29.80,SSW,195,0.0,-999.0,31,-99.99,,,0.00,weatherlink.com 1.10,2013-06-01 22:48:00,
2013-06-01 16:03:00,90.3,57.0,29.80,ESE,105,0.0,-999.0,32,-99.99,,,0.00,weatherlink.com 1.10,2013-06-01 23:03:00,
2013-06-01 16:18:00,88.9,55.0,29.79,ENE,59,0.0,-999.0,31,-99.99,,,0.00,weatherlink.com 1.10,2013-06-01 23:18:00,
2013-06-01 16:33:00,88.1,56.0,29.79,ENE,61,5.0,-999.0,33,-99.99,,,0.00,weatherlink.com 1.10,2013-06-01 23:33:00,
2013-06-01 16:48:00,87.5,57.0,29.79,South,182,2.0,-999.0,35,-99.99,,,0.00,weatherlink.com 1.10,2013-06-01 23:48:00,
2013-06-01 17:03:00,86.0,56.0,29.79,ESE,108,0.0,-999.0,36,-99.99,,,0.00,weatherlink.com 1.10,2013-06-02 00:03:00,
2013-06-01 17:18:00,85.5,49.0,29.78,North,355,11.0,-999.0,28,-99.99,,,0.00,weatherlink.com 1.10,2013-06-02 00:18:00,
2013-06-01 17:33:00,85.2,49.0,29.77,WNW,293,1.0,-999.0,28,-99.99,,,0.00,weatherlink.com 1.10,2013-06-02 00:33:00,
2013-06-01 17:48:00,86.9,50.0,29.77,West,279,4.0,-999.0,28,-99.99,,,0.00,weatherlink.com 1.10,2013-06-02 00:48:00,
2013-06-01 18:03:00,88.6,55.0,29.77,SW,219,1.0,-999.0,32,-99.99,,,0.00,weatherlink.com 1.10,2013-06-02 01:03:00,
2013-06-01 18:18:00,89.1,53.0,29.76,West,271,3.0,-999.0,29,-99.99,,,0.00,weatherlink.com 1.10,2013-06-02 01:18:00,
2013-06-01 18:32:00,86.9,52.0,29.76,WNW,296,5.0,-999.0,30,-99.99,,,0.00,weatherlink.com 1.10,2013-06-02 01:32:00,
2013-06-01 18:48:00,85.7,51.0,29.76,NW,325,5.0,-999.0,30,-99.99,,,0.00,weatherlink.com 1.10,2013-06-02 01:48:00,
2013-06-01 19:03:00,85.0,52.0,29.76,West,277,4.0,-999.0,32,-99.99,,,0.00,weatherlink.com 1.10,2013-06-02 02:03:00,
2013-06-01 19:18:00,84.0,50.0,29.76,WNW,283,9.0,-999.0,31,-99.99,,,0.00,weatherlink.com 1.10,2013-06-02 02:18:00,
2013-06-01 19:33:00,82.7,51.0,29.76,West,281,7.0,-999.0,33,-99.99,,,0.00,weatherlink.com 1.10,2013-06-02 02:33:00,
2013-06-01 19:48:00,80.9,50.0,29.76,WNW,290,11.0,-999.0,34,-99.99,,,0.00,weatherlink.com 1.10,2013-06-02 02:48:00,
2013-06-01 20:03:00,80.3,49.0,29.76,WNW,298,7.0,-999.0,34,-99.99,,,0.00,weatherlink.com 1.10,2013-06-02 03:03:00,
2013-06-01 20:18:00,79.9,49.0,29.75,SW,234,9.0,-999.0,34,-99.99,,,0.00,weatherlink.com 1.10,2013-06-02 03:18:00,
2013-06-01 20:33:00,78.3,51.0,29.76,WNW,300,0.0,-999.0,38,-99.99,,,0.00,weatherlink.com 1.10,2013-06-02 03:33:00,
2013-06-01 20:48:00,75.2,51.0,29.76,NNE,24,0.0,-999.0,43,-99.99,,,0.00,weatherlink.com 1.10,2013-06-02 03:48:00,
2013-06-01 21:03:00,72.7,51.0,29.77,NE,56,0.0,-999.0,46,-99.99,,,0.00,weatherlink.com 1.10,2013-06-02 04:03:00,
2013-06-01 21:18:00,70.7,50.0,29.77,ENE,57,0.0,-999.0,48,-99.99,,,0.00,weatherlink.com 1.10,2013-06-02 04:18:00,
2013-06-01 21:33:00,69.4,50.0,29.77,ENE,74,0.0,-999.0,50,-99.99,,,0.00,weatherlink.com 1.10,2013-06-02 04:33:00,
2013-06-01 21:48:00,68.8,50.0,29.77,ENE,74,1.0,-999.0,51,-99.99,,,0.00,weatherlink.com 1.10,2013-06-02 04:48:00,
2013-06-01 22:03:00,67.9,49.0,29.78,ENE,74,0.0,-999.0,51,-99.99,,,0.00,weatherlink.com 1.10,2013-06-02 05:03:00,
2013-06-01 22:18:00,67.0,49.0,29.78,ENE,74,0.0,-999.0,52,-99.99,,,0.00,weatherlink.com 1.10,2013-06-02 05:18:00,
2013-06-01 22:32:00,66.3,48.0,29.78,ENE,74,0.0,-999.0,53,-99.99,,,0.00,weatherlink.com 1.10,2013-06-02 05:32:00,
2013-06-01 22:48:00,65.3,49.0,29.78,ENE,74,0.0,-999.0,57,-99.99,,,0.00,weatherlink.com 1.10,2013-06-02 05:48:00,
2013-06-01 23:03:00,64.6,49.0,29.77,ENE,74,0.0,-999.0,57,-99.99,,,0.00,weatherlink.com 1.10,2013-06-02 06:03:00,
2013-06-01 23:18:00,63.9,48.0,29.77,ENE,74,0.0,-999.0,57,-99.99,,,0.00,weatherlink.com 1.10,2013-06-02 06:18:00,
2013-06-01 23:33:00,63.1,48.0,29.77,ENE,74,0.0,-999.0,59,-99.99,,,0.00,weatherlink.com 1.10,2013-06-02 06:33:00,
2013-06-01 23:48:00,62.5,47.0,29.77,ENE,74,0.0,-999.0,57,-99.99,,,0.00,weatherlink.com 1.10,2013-06-02 06:48:00,